Time;durP1;ratioP1;P1;durP2;ratioP2;P2;SDS_P1;SDS_P2;PMS_P1;PMS_P2;Temp;Humidity;BMP_temperature;BMP_pressure;BME280_temperature;BME280_humidity;BME280_pressure;Samples;Min_cycle;Max_cycle;Signal;HPM_P1;HPM_P2
2022/05/15 00:02:45;;;;;;;19.30;7.38;;;;;;;;;;5103461;28;20530;-74
2022/05/15 00:05:12;;;;;;;17.50;7.47;;;;;;;;;;5102125;28;20054;-74
2022/05/15 00:07:38;;;;;;;20.98;7.57;;;;;;;;;;5094985;28;20040;-74
2022/05/15 00:10:05;;;;;;;20.88;8.57;;;;;;;;;;5106762;28;20046;-74
2022/05/15 00:12:31;;;;;;;16.95;7.57;;;;;;;;;;5097534;28;20051;-73
2022/05/15 00:15:08;;;;;;;20.98;7.65;;;;;;;;;;5110551;28;20040;-73
2022/05/15 00:17:34;;;;;;;22.42;9.50;;;;;;;;;;5110476;28;20039;-73
2022/05/15 00:20:00;;;;;;;23.80;9.30;;;;;;;;;;5110477;28;20036;-74
2022/05/15 00:22:26;;;;;;;26.27;8.63;;;;;;;;;;5093690;28;20040;-73
2022/05/15 00:24:52;;;;;;;27.02;9.82;;;;;;;;;;5110489;28;20495;-74
2022/05/15 00:27:18;;;;;;;24.02;9.60;;;;;;;;;;5094544;28;20123;-73
2022/05/15 00:29:44;;;;;;;20.95;9.57;;;;;;;;;;5092855;28;20109;-74
2022/05/15 00:32:14;;;;;;;28.50;9.68;;;;;;;;;;5086108;28;20040;-74
2022/05/15 00:34:40;;;;;;;22.02;9.85;;;;;;;;;;5084265;28;20044;-74
2022/05/15 00:37:07;;;;;;;20.92;8.80;;;;;;;;;;5109777;28;20055;-74
2022/05/15 00:39:33;;;;;;;24.30;9.70;;;;;;;;;;5107604;28;21040;-73
2022/05/15 00:41:59;;;;;;;25.30;9.77;;;;;;;;;;5096694;28;20127;-73
2022/05/15 00:44:25;;;;;;;31.13;11.00;;;;;;;;;;5082430;28;20170;-73
2022/05/15 00:46:51;;;;;;;23.15;10.13;;;;;;;;;;5087295;28;20046;-73
2022/05/15 00:49:17;;;;;;;22.77;9.80;;;;;;;;;;5093300;28;20036;-74
2022/05/15 00:51:47;;;;;;;21.30;9.40;;;;;;;;;;5103758;28;20043;-73
2022/05/15 00:54:24;;;;;;;23.73;9.10;;;;;;;;;;5099793;28;20039;-74
2022/05/15 00:57:14;;;;;;;21.02;8.43;;;;;;;;;;5109738;28;20044;-74
2022/05/15 00:59:47;;;;;;;20.98;9.30;;;;;;;;;;5063977;28;20400;-74
2022/05/15 01:02:14;;;;;;;22.90;9.45;;;;;;;;;;5081016;28;20071;-73
2022/05/15 01:04:40;;;;;;;22.45;9.63;;;;;;;;;;5094015;28;20036;-73
2022/05/15 01:07:06;;;;;;;18.45;9.15;;;;;;;;;;5089297;28;20040;-73
2022/05/15 01:09:33;;;;;;;23.55;9.27;;;;;;;;;;5096261;28;20040;-73
2022/05/15 01:12:02;;;;;;;18.73;9.52;;;;;;;;;;5098502;28;20040;-73
2022/05/15 01:14:28;;;;;;;23.70;8.80;;;;;;;;;;5102630;28;20048;-73
2022/05/15 01:16:54;;;;;;;18.88;9.43;;;;;;;;;;5090944;28;20055;-73
2022/05/15 01:19:31;;;;;;;23.10;9.02;;;;;;;;;;5101156;28;20200;-74
2022/05/15 01:21:57;;;;;;;24.38;9.07;;;;;;;;;;5099490;28;20062;-73
2022/05/15 01:24:24;;;;;;;20.83;9.18;;;;;;;;;;5074666;28;20054;-73
2022/05/15 01:26:57;;;;;;;22.67;9.50;;;;;;;;;;5104350;28;20578;-73
2022/05/15 01:29:30;;;;;;;18.98;9.20;;;;;;;;;;5072398;28;20043;-74
2022/05/15 01:31:57;;;;;;;20.73;9.05;;;;;;;;;;5085370;28;20046;-73
2022/05/15 01:34:24;;;;;;;22.98;9.07;;;;;;;;;;5076158;28;20047;-73
2022/05/15 01:36:51;;;;;;;22.98;9.70;;;;;;;;;;5091800;28;20475;-74
2022/05/15 01:39:17;;;;;;;23.23;9.85;;;;;;;;;;5100818;28;20115;-74
2022/05/15 01:41:43;;;;;;;24.83;9.57;;;;;;;;;;5085798;28;20404;-74
2022/05/15 01:44:10;;;;;;;22.58;8.93;;;;;;;;;;5106199;28;20506;-74
2022/05/15 01:46:36;;;;;;;21.30;8.68;;;;;;;;;;5080551;28;20044;-74
2022/05/15 01:49:06;;;;;;;18.48;9.02;;;;;;;;;;5104891;28;20072;-74
2022/05/15 01:51:32;;;;;;;21.20;9.15;;;;;;;;;;5088670;28;20187;-74
2022/05/15 01:53:59;;;;;;;18.30;8.57;;;;;;;;;;5061487;28;20055;-73
2022/05/15 01:56:25;;;;;;;22.50;8.43;;;;;;;;;;5113485;28;20054;-73
2022/05/15 01:58:51;;;;;;;24.27;9.55;;;;;;;;;;5104907;28;20085;-74
2022/05/15 02:01:20;;;;;;;21.95;9.00;;;;;;;;;;5104827;28;20067;-74
2022/05/15 02:03:46;;;;;;;22.85;10.10;;;;;;;;;;5096171;28;20089;-73
2022/05/15 02:06:13;;;;;;;23.80;9.98;;;;;;;;;;5109268;28;20498;-74
2022/05/15 02:08:39;;;;;;;22.40;8.85;;;;;;;;;;5100700;28;20039;-74
2022/05/15 02:11:06;;;;;;;22.42;9.13;;;;;;;;;;5101508;28;20046;-74
2022/05/15 02:13:33;;;;;;;19.90;9.20;;;;;;;;;;5092817;28;20042;-73
2022/05/15 02:15:59;;;;;;;21.08;9.15;;;;;;;;;;5108096;28;20074;-73
2022/05/15 02:18:25;;;;;;;16.92;8.30;;;;;;;;;;5105337;28;20087;-73
2022/05/15 02:20:51;;;;;;;24.52;9.23;;;;;;;;;;5103303;28;20043;-74
2022/05/15 02:23:18;;;;;;;22.13;9.98;;;;;;;;;;5080650;28;20448;-74
2022/05/15 02:25:44;;;;;;;22.65;9.30;;;;;;;;;;5094792;28;20484;-74
2022/05/15 02:28:10;;;;;;;19.08;8.65;;;;;;;;;;5112740;28;20536;-74
2022/05/15 02:30:36;;;;;;;19.15;9.05;;;;;;;;;;5102221;28;20044;-74
2022/05/15 02:33:02;;;;;;;21.10;10.35;;;;;;;;;;5106373;28;20040;-74
2022/05/15 02:35:29;;;;;;;20.75;8.85;;;;;;;;;;5092458;28;20491;-74
2022/05/15 02:37:55;;;;;;;16.75;9.20;;;;;;;;;;5097661;28;20070;-74
2022/05/15 02:40:23;;;;;;;20.45;9.40;;;;;;;;;;5102459;28;20040;-74
2022/05/15 02:42:49;;;;;;;24.23;10.23;;;;;;;;;;5105866;28;20043;-74
2022/05/15 02:45:15;;;;;;;20.50;10.05;;;;;;;;;;5096155;28;20036;-74
2022/05/15 02:47:42;;;;;;;20.60;9.48;;;;;;;;;;5107125;28;20039;-74
2022/05/15 02:52:57;;;;;;;21.40;8.80;;;;;;;;;;5095973;28;20515;-74
2022/05/15 02:55:24;;;;;;;20.88;9.23;;;;;;;;;;5071132;28;20529;-74
2022/05/15 02:57:50;;;;;;;20.42;8.30;;;;;;;;;;5087014;28;20092;-74
2022/05/15 03:00:18;;;;;;;19.00;8.88;;;;;;;;;;5082991;28;20036;-74
2022/05/15 03:02:44;;;;;;;20.90;10.65;;;;;;;;;;5091639;28;20127;-74
2022/05/15 03:05:11;;;;;;;21.20;8.98;;;;;;;;;;5108092;28;20065;-73
2022/05/15 03:07:37;;;;;;;20.20;9.27;;;;;;;;;;5098740;28;20040;-74
2022/05/15 03:10:04;;;;;;;21.17;9.52;;;;;;;;;;5100151;28;20046;-74
2022/05/15 03:12:30;;;;;;;25.98;10.70;;;;;;;;;;5074415;28;20082;-74
2022/05/15 03:14:56;;;;;;;20.38;9.18;;;;;;;;;;5090830;28;20142;-74
2022/05/15 03:17:22;;;;;;;18.10;8.70;;;;;;;;;;5097962;28;20075;-74
2022/05/15 03:19:49;;;;;;;20.42;8.73;;;;;;;;;;5111567;28;20131;-73
2022/05/15 03:22:15;;;;;;;17.25;8.60;;;;;;;;;;5111559;28;20040;-74
2022/05/15 03:24:41;;;;;;;25.88;10.90;;;;;;;;;;5094606;28;20040;-74
2022/05/15 03:27:11;;;;;;;23.80;9.77;;;;;;;;;;5105133;28;20111;-74
2022/05/15 03:29:37;;;;;;;21.00;8.93;;;;;;;;;;5101544;28;20039;-74
2022/05/15 03:32:03;;;;;;;18.25;9.20;;;;;;;;;;5109051;28;20479;-74
2022/05/15 03:34:29;;;;;;;22.75;10.40;;;;;;;;;;5094674;28;20407;-74
2022/05/15 03:36:56;;;;;;;23.90;10.02;;;;;;;;;;5087998;28;20051;-74
2022/05/15 03:39:22;;;;;;;19.80;9.48;;;;;;;;;;5100753;28;20050;-74
2022/05/15 03:41:49;;;;;;;19.83;9.88;;;;;;;;;;5095437;28;20056;-73
2022/05/15 03:44:16;;;;;;;26.40;12.00;;;;;;;;;;5073937;28;20036;-74
2022/05/15 03:46:43;;;;;;;23.60;12.05;;;;;;;;;;5105898;28;20040;-74
2022/05/15 03:49:11;;;;;;;20.23;10.57;;;;;;;;;;5099912;28;20039;-73
2022/05/15 03:51:37;;;;;;;23.92;10.30;;;;;;;;;;5080294;28;20042;-74
2022/05/15 03:54:04;;;;;;;24.83;10.82;;;;;;;;;;5108094;28;20048;-74
2022/05/15 03:56:49;;;;;;;17.92;9.32;;;;;;;;;;5105494;28;20075;-73
2022/05/15 03:59:15;;;;;;;;;;;;;;;;;;5085874;28;20550;-74
2022/05/15 04:01:42;;;;;;;25.58;9.32;;;;;;;;;;5095086;28;19916;-73
2022/05/15 04:04:08;;;;;;;22.58;10.25;;;;;;;;;;5106736;28;20078;-73
2022/05/15 04:06:34;;;;;;;23.33;10.63;;;;;;;;;;5079870;28;20035;-73
2022/05/15 04:09:01;;;;;;;22.33;10.80;;;;;;;;;;5099171;28;20043;-73
2022/05/15 04:11:27;;;;;;;22.98;10.70;;;;;;;;;;5105543;28;20036;-73
2022/05/15 04:13:53;;;;;;;22.20;10.82;;;;;;;;;;5090892;28;20071;-73
2022/05/15 04:16:19;;;;;;;28.17;12.45;;;;;;;;;;5073314;28;20134;-73
2022/05/15 04:18:45;;;;;;;19.15;10.50;;;;;;;;;;5100272;28;20467;-73
2022/05/15 04:21:12;;;;;;;24.80;11.73;;;;;;;;;;5096003;28;20508;-73
2022/05/15 04:23:44;;;;;;;22.83;10.93;;;;;;;;;;5106329;28;20088;-73
2022/05/15 04:26:10;;;;;;;20.17;10.13;;;;;;;;;;5096582;28;20577;-73
2022/05/15 04:28:36;;;;;;;22.50;10.90;;;;;;;;;;5099594;28;20082;-73
2022/05/15 04:31:05;;;;;;;24.23;11.52;;;;;;;;;;5087394;28;20073;-74
2022/05/15 04:33:32;;;;;;;25.90;11.10;;;;;;;;;;5105224;28;20040;-73
2022/05/15 04:35:59;;;;;;;20.85;10.30;;;;;;;;;;5095839;28;20398;-74
2022/05/15 04:38:25;;;;;;;19.98;10.07;;;;;;;;;;5109811;28;20047;-74
2022/05/15 04:40:52;;;;;;;23.77;10.38;;;;;;;;;;5095906;28;20403;-74
2022/05/15 04:43:18;;;;;;;26.15;10.30;;;;;;;;;;5106237;28;20043;-74
2022/05/15 04:45:45;;;;;;;26.42;11.43;;;;;;;;;;5089378;28;20040;-73
2022/05/15 04:48:11;;;;;;;23.70;10.88;;;;;;;;;;5082383;28;20410;-73
2022/05/15 04:50:38;;;;;;;18.85;10.05;;;;;;;;;;5079440;28;20044;-73
2022/05/15 04:53:07;;;;;;;20.45;11.45;;;;;;;;;;5089142;28;20052;-73
2022/05/15 04:55:34;;;;;;;22.63;11.15;;;;;;;;;;5095062;28;20047;-73
2022/05/15 04:58:00;;;;;;;24.80;11.40;;;;;;;;;;5100140;28;20051;-73
2022/05/15 05:00:26;;;;;;;25.77;13.15;;;;;;;;;;5103085;28;20039;-73
2022/05/15 05:02:52;;;;;;;24.20;12.13;;;;;;;;;;5093132;28;20446;-73
2022/05/15 05:05:19;;;;;;;25.70;12.18;;;;;;;;;;5104417;28;20032;-74
2022/05/15 05:07:45;;;;;;;28.13;11.90;;;;;;;;;;5098042;28;20130;-73
2022/05/15 05:10:13;;;;;;;24.10;12.07;;;;;;;;;;5109790;28;20051;-74
2022/05/15 05:12:39;;;;;;;27.52;12.20;;;;;;;;;;5092892;28;20082;-73
2022/05/15 05:15:06;;;;;;;21.95;11.85;;;;;;;;;;5104857;28;20051;-73
2022/05/15 05:17:32;;;;;;;22.17;11.00;;;;;;;;;;5089150;28;20104;-73
2022/05/15 05:19:58;;;;;;;29.30;12.80;;;;;;;;;;5100642;28;20036;-73
2022/05/15 05:22:25;;;;;;;21.67;11.77;;;;;;;;;;5091394;28;20052;-73
2022/05/15 05:24:51;;;;;;;26.10;12.88;;;;;;;;;;5069504;28;20518;-74
2022/05/15 05:27:17;;;;;;;24.90;12.45;;;;;;;;;;5086978;28;20040;-73
2022/05/15 05:29:43;;;;;;;28.15;12.90;;;;;;;;;;5083026;28;20044;-73
2022/05/15 05:32:10;;;;;;;27.08;13.65;;;;;;;;;;5083313;28;20489;-73
2022/05/15 05:34:36;;;;;;;28.90;13.38;;;;;;;;;;5087308;28;20071;-74
2022/05/15 05:37:02;;;;;;;31.25;14.25;;;;;;;;;;5088071;28;20055;-73
2022/05/15 05:39:29;;;;;;;29.73;14.48;;;;;;;;;;5086854;28;20102;-73
2022/05/15 05:41:56;;;;;;;31.58;12.82;;;;;;;;;;5086963;28;20032;-73
2022/05/15 05:44:23;;;;;;;31.20;13.85;;;;;;;;;;5086411;28;20036;-75
2022/05/15 05:46:49;;;;;;;32.67;14.18;;;;;;;;;;5086869;28;20039;-73
2022/05/15 05:49:15;;;;;;;27.70;13.13;;;;;;;;;;5086684;28;20059;-73
2022/05/15 05:51:41;;;;;;;27.88;13.13;;;;;;;;;;5086242;28;20089;-73
2022/05/15 05:54:07;;;;;;;26.52;12.73;;;;;;;;;;5069641;28;20040;-73
2022/05/15 05:56:33;;;;;;;28.55;12.27;;;;;;;;;;5083169;28;20263;-73
2022/05/15 05:58:59;;;;;;;28.27;13.32;;;;;;;;;;5085782;28;20090;-73
2022/05/15 06:01:26;;;;;;;30.05;13.68;;;;;;;;;;5083019;28;20075;-73
2022/05/15 06:06:36;;;;;;;25.77;13.05;;;;;;;;;;5083963;28;20039;-73
2022/05/15 06:09:03;;;;;;;23.90;11.90;;;;;;;;;;5083026;28;20342;-73
2022/05/15 06:11:29;;;;;;;25.02;13.02;;;;;;;;;;5077196;28;20028;-73
2022/05/15 06:13:55;;;;;;;26.40;12.98;;;;;;;;;;5080682;28;20068;-73
2022/05/15 06:16:22;;;;;;;26.45;12.48;;;;;;;;;;5083316;28;20073;-73
2022/05/15 06:18:48;;;;;;;30.20;12.23;;;;;;;;;;5090699;28;20036;-73
2022/05/15 06:21:14;;;;;;;20.15;11.48;;;;;;;;;;5096120;28;20540;-73
2022/05/15 06:23:40;;;;;;;27.33;11.85;;;;;;;;;;5089140;28;20040;-74
2022/05/15 06:26:07;;;;;;;27.88;13.05;;;;;;;;;;5100228;28;20036;-74
2022/05/15 06:28:34;;;;;;;24.40;11.27;;;;;;;;;;5100922;28;20498;-73
2022/05/15 06:31:01;;;;;;;31.80;12.43;;;;;;;;;;5093679;28;20040;-73
2022/05/15 06:33:27;;;;;;;22.88;10.40;;;;;;;;;;5089965;28;20527;-73
2022/05/15 06:35:54;;;;;;;25.15;10.73;;;;;;;;;;5090283;28;20087;-74
2022/05/15 06:38:20;;;;;;;29.00;10.95;;;;;;;;;;5090082;28;20052;-74
2022/05/15 06:40:46;;;;;;;29.23;10.20;;;;;;;;;;5084773;28;20083;-75
2022/05/15 06:43:12;;;;;;;23.27;9.25;;;;;;;;;;5077398;28;20028;-72
2022/05/15 06:45:39;;;;;;;24.08;8.88;;;;;;;;;;5090130;28;20067;-73
2022/05/15 06:48:05;;;;;;;25.10;9.13;;;;;;;;;;5071057;28;20044;-74
2022/05/15 06:50:31;;;;;;;24.90;8.45;;;;;;;;;;5086719;28;20327;-74
2022/05/15 06:52:58;;;;;;;24.63;8.43;;;;;;;;;;5103030;28;20035;-73
2022/05/15 06:55:24;;;;;;;21.77;7.95;;;;;;;;;;5077145;28;20517;-73
2022/05/15 06:57:50;;;;;;;23.05;7.80;;;;;;;;;;5093682;28;20032;-73
2022/05/15 07:00:18;;;;;;;23.42;7.97;;;;;;;;;;5073173;28;20040;-74
2022/05/15 07:02:46;;;;;;;19.08;7.75;;;;;;;;;;5088540;28;20131;-74
2022/05/15 07:05:13;;;;;;;20.25;7.38;;;;;;;;;;5065580;28;20035;-73
2022/05/15 07:07:40;;;;;;;23.77;7.95;;;;;;;;;;5091288;28;20098;-75
2022/05/15 07:10:06;;;;;;;24.70;7.65;;;;;;;;;;5087297;28;20109;-74
2022/05/15 07:12:33;;;;;;;21.33;7.80;;;;;;;;;;5091367;28;20040;-74
2022/05/15 07:15:01;;;;;;;20.92;6.57;;;;;;;;;;5089146;28;20036;-75
2022/05/15 07:17:27;;;;;;;20.08;7.10;;;;;;;;;;5084500;28;20500;-73
2022/05/15 07:19:53;;;;;;;17.88;6.78;;;;;;;;;;5068800;28;20118;-74
2022/05/15 07:22:20;;;;;;;22.58;6.85;;;;;;;;;;5071681;28;20411;-74
2022/05/15 07:24:46;;;;;;;17.50;7.25;;;;;;;;;;5082952;28;20433;-74
2022/05/15 07:27:12;;;;;;;16.67;6.18;;;;;;;;;;5084573;28;20035;-75
2022/05/15 07:29:38;;;;;;;19.17;6.45;;;;;;;;;;5089986;28;20040;-73
2022/05/15 07:32:08;;;;;;;18.33;5.82;;;;;;;;;;5090482;28;20044;-74
2022/05/15 07:34:37;;;;;;;18.35;5.80;;;;;;;;;;5089166;28;20466;-74
2022/05/15 07:37:03;;;;;;;17.42;5.43;;;;;;;;;;5088925;28;20149;-74
2022/05/15 07:39:30;;;;;;;18.73;5.65;;;;;;;;;;5089160;28;20269;-73
2022/05/15 07:41:57;;;;;;;18.08;5.40;;;;;;;;;;5085410;28;20032;-78
2022/05/15 07:44:23;;;;;;;14.07;4.93;;;;;;;;;;5086548;28;20040;-78
2022/05/15 07:46:49;;;;;;;13.95;5.00;;;;;;;;;;5090109;28;20046;-79
2022/05/15 07:49:16;;;;;;;19.70;6.18;;;;;;;;;;5073190;28;20225;-79
2022/05/15 07:51:44;;;;;;;14.90;5.72;;;;;;;;;;5072268;28;20040;-80
2022/05/15 07:54:15;;;;;;;16.35;5.05;;;;;;;;;;5087996;28;20457;-79
2022/05/15 07:56:42;;;;;;;16.40;4.95;;;;;;;;;;5087644;28;20047;-78
2022/05/15 07:59:08;;;;;;;17.55;5.50;;;;;;;;;;5083048;28;20408;-78
2022/05/15 08:01:34;;;;;;;16.90;5.10;;;;;;;;;;5085316;28;20499;-79
2022/05/15 08:04:01;;;;;;;15.20;5.03;;;;;;;;;;5072807;28;20518;-79
2022/05/15 08:09:12;;;;;;;12.40;4.80;;;;;;;;;;5090699;28;20040;-78
2022/05/15 08:11:44;;;;;;;14.85;4.43;;;;;;;;;;5089868;28;20028;-78
2022/05/15 08:14:13;;;;;;;14.02;4.53;;;;;;;;;;5078048;28;20035;-77
2022/05/15 08:16:40;;;;;;;14.82;4.88;;;;;;;;;;5069467;28;20032;-80
2022/05/15 08:24:37;;;;;;;17.60;5.07;;;;;;;;;;5086487;28;20040;-80
2022/05/15 08:27:04;;;;;;;16.88;5.10;;;;;;;;;;5103943;28;20051;-79
2022/05/15 08:29:30;;;;;;;15.45;4.75;;;;;;;;;;5087419;28;20036;-81
2022/05/15 08:31:57;;;;;;;17.08;5.22;;;;;;;;;;5067907;28;20063;-81
2022/05/15 08:34:23;;;;;;;18.77;5.22;;;;;;;;;;5093578;28;20398;-79
2022/05/15 08:36:51;;;;;;;18.73;4.93;;;;;;;;;;5072157;28;20100;-80
2022/05/15 08:39:17;;;;;;;15.52;5.03;;;;;;;;;;5073611;28;20097;-82
2022/05/15 08:41:50;;;;;;;19.55;4.90;;;;;;;;;;5071386;28;20495;-80
2022/05/15 08:44:22;;;;;;;13.00;4.65;;;;;;;;;;5072547;28;20119;-80
2022/05/15 08:47:09;;;;;;;17.88;4.68;;;;;;;;;;5088762;28;20441;-80
2022/05/15 08:49:35;;;;;;;16.30;4.97;;;;;;;;;;5071959;28;20054;-83
2022/05/15 08:52:13;;;;;;;14.02;4.90;;;;;;;;;;5071939;28;20036;-80
2022/05/15 08:54:48;;;;;;;17.73;5.10;;;;;;;;;;5089432;28;20122;-81
2022/05/15 08:57:19;;;;;;;14.18;4.85;;;;;;;;;;5093017;28;20426;-81
2022/05/15 08:59:51;;;;;;;14.63;4.72;;;;;;;;;;5110179;28;20047;-80
2022/05/15 09:02:17;;;;;;;15.00;4.82;;;;;;;;;;5095320;28;20044;-81
2022/05/15 09:04:43;;;;;;;15.52;4.82;;;;;;;;;;5089357;28;20028;-79
2022/05/15 09:07:28;;;;;;;16.50;5.00;;;;;;;;;;5076086;28;20093;-80
2022/05/15 09:10:18;;;;;;;14.25;4.53;;;;;;;;;;5091669;28;20429;-79
2022/05/15 09:12:48;;;;;;;13.88;4.38;;;;;;;;;;5075599;28;20048;-80
2022/05/15 09:15:20;;;;;;;15.45;5.10;;;;;;;;;;5070635;28;20131;-81
2022/05/15 09:18:04;;;;;;;13.25;4.50;;;;;;;;;;5078370;28;20051;-80
2022/05/15 09:20:45;;;;;;;14.85;4.90;;;;;;;;;;5060349;28;20407;-80
2022/05/15 09:23:38;;;;;;;15.15;5.00;;;;;;;;;;5100698;28;20036;-81
2022/05/15 09:26:07;;;;;;;15.63;5.00;;;;;;;;;;5050709;28;20048;-80
2022/05/15 09:28:41;;;;;;;13.35;4.70;;;;;;;;;;5058472;28;20373;-80
2022/05/15 09:31:19;;;;;;;14.48;5.05;;;;;;;;;;5104320;28;20395;-81
2022/05/15 09:34:03;;;;;;;17.70;5.35;;;;;;;;;;5109817;28;20407;-79
2022/05/15 09:36:35;;;;;;;14.23;4.78;;;;;;;;;;5107125;28;20517;-79
2022/05/15 09:39:10;;;;;;;16.80;4.43;;;;;;;;;;5095985;28;20043;-81
2022/05/15 09:44:21;;;;;;;;;;;;;;;;;;5105565;28;20044;-81
2022/05/15 09:46:56;;;;;;;15.20;4.50;;;;;;;;;;5065674;28;19916;-79
2022/05/15 09:49:24;;;;;;;16.10;5.45;;;;;;;;;;5058689;28;20033;-79
2022/05/15 09:51:54;;;;;;;14.88;4.35;;;;;;;;;;5061899;28;20081;-80
2022/05/15 09:54:38;;;;;;;14.23;4.80;;;;;;;;;;5071198;28;20048;-80
2022/05/15 09:57:24;;;;;;;15.68;4.78;;;;;;;;;;5061063;28;20046;-80
2022/05/15 09:59:59;;;;;;;14.68;4.80;;;;;;;;;;5106704;28;20040;-81
2022/05/15 10:02:42;;;;;;;13.48;4.35;;;;;;;;;;5092549;28;20126;-81
2022/05/15 10:05:29;;;;;;;14.35;4.78;;;;;;;;;;5079582;28;20036;-81
2022/05/15 10:08:10;;;;;;;15.07;5.10;;;;;;;;;;5093188;28;20703;-80
2022/05/15 10:11:03;;;;;;;17.80;5.07;;;;;;;;;;5102729;28;20072;-80
2022/05/15 10:13:43;;;;;;;16.98;4.95;;;;;;;;;;5077409;28;20044;-81
2022/05/15 10:16:10;;;;;;;16.42;4.78;;;;;;;;;;5065795;28;20537;-79
2022/05/15 10:18:58;;;;;;;16.20;4.97;;;;;;;;;;5057600;28;20037;-80
2022/05/15 10:21:25;;;;;;;14.95;4.55;;;;;;;;;;5079649;28;20074;-81
2022/05/15 10:23:55;;;;;;;16.20;5.03;;;;;;;;;;5087517;28;20079;-80
2022/05/15 10:26:24;;;;;;;16.00;5.07;;;;;;;;;;5073990;28;20059;-81
2022/05/15 10:29:03;;;;;;;16.80;5.05;;;;;;;;;;5082337;28;20040;-80
2022/05/15 10:31:32;;;;;;;13.30;4.40;;;;;;;;;;5094353;28;20041;-81
2022/05/15 10:34:01;;;;;;;15.10;5.50;;;;;;;;;;5083875;28;20036;-79
2022/05/15 10:36:27;;;;;;;15.90;4.50;;;;;;;;;;5093724;28;20048;-79
2022/05/15 10:39:12;;;;;;;14.57;4.40;;;;;;;;;;5076318;28;20534;-81
2022/05/15 10:41:38;;;;;;;;;;;;;;;;;;5076960;28;20066;-80
2022/05/15 10:44:09;;;;;;;15.27;5.03;;;;;;;;;;5093749;28;19920;-80
2022/05/15 10:46:41;;;;;;;11.35;4.53;;;;;;;;;;5094335;28;20040;-80
2022/05/15 10:49:18;;;;;;;26.27;5.82;;;;;;;;;;5075891;28;20067;-80
2022/05/15 10:51:45;;;;;;;16.70;5.03;;;;;;;;;;5080522;28;20047;-79
2022/05/15 10:57:43;;;;;;;11.95;4.45;;;;;;;;;;5046325;28;20616;-79
2022/05/15 11:00:12;;;;;;;14.02;5.13;;;;;;;;;;5072656;28;20193;-78
2022/05/15 11:02:57;;;;;;;11.82;4.47;;;;;;;;;;5073028;28;20102;-77
2022/05/15 11:05:28;;;;;;;13.68;3.95;;;;;;;;;;5075130;28;20495;-77
2022/05/15 11:08:06;;;;;;;12.55;4.68;;;;;;;;;;5085307;28;20040;-78
2022/05/15 11:10:41;;;;;;;16.02;4.80;;;;;;;;;;5092153;28;20036;-78
2022/05/15 11:13:11;;;;;;;14.93;4.95;;;;;;;;;;5088140;28;20035;-80
2022/05/15 11:15:37;;;;;;;16.48;5.05;;;;;;;;;;5082567;28;20035;-79
2022/05/15 11:18:14;;;;;;;11.93;4.05;;;;;;;;;;5095930;28;20040;-80
2022/05/15 11:20:49;;;;;;;20.20;4.95;;;;;;;;;;5106266;28;20078;-77
2022/05/15 11:23:17;;;;;;;13.02;4.40;;;;;;;;;;5083163;28;20032;-78
2022/05/15 11:26:20;;;;;;;14.43;4.07;;;;;;;;;;5083544;28;20492;-79
2022/05/15 11:28:48;;;;;;;13.38;5.47;;;;;;;;;;5033616;28;20075;-78
2022/05/15 11:31:21;;;;;;;13.32;5.22;;;;;;;;;;5086426;28;20056;-78
2022/05/15 11:33:49;;;;;;;14.18;4.95;;;;;;;;;;5088222;28;20032;-77
2022/05/15 11:36:29;;;;;;;15.63;4.80;;;;;;;;;;5076553;28;20058;-78
2022/05/15 11:38:55;;;;;;;14.13;5.07;;;;;;;;;;5070675;28;20415;-78
2022/05/15 11:42:08;;;;;;;14.05;4.78;;;;;;;;;;5072715;28;20082;-78
2022/05/15 11:44:35;;;;;;;13.73;4.70;;;;;;;;;;5079631;28;20040;-78
2022/05/15 11:47:04;;;;;;;16.58;4.40;;;;;;;;;;5072415;28;20173;-77
2022/05/15 11:49:38;;;;;;;13.63;4.63;;;;;;;;;;5087427;28;20081;-78
2022/05/15 11:52:05;;;;;;;11.48;3.90;;;;;;;;;;5076922;28;20051;-78
2022/05/15 11:54:33;;;;;;;10.60;3.58;;;;;;;;;;5092707;28;20040;-79
2022/05/15 11:57:00;;;;;;;11.73;4.53;;;;;;;;;;5094558;28;20290;-79
2022/05/15 11:59:32;;;;;;;15.50;4.60;;;;;;;;;;5072831;28;20114;-80
2022/05/15 12:02:00;;;;;;;12.05;3.85;;;;;;;;;;5089793;28;20396;-81
2022/05/15 12:04:36;;;;;;;15.52;4.97;;;;;;;;;;5071905;28;20672;-80
2022/05/15 12:07:02;;;;;;;12.35;3.80;;;;;;;;;;5064467;28;20348;-81
2022/05/15 12:09:39;;;;;;;14.75;4.15;;;;;;;;;;5075349;28;20038;-81
2022/05/15 12:12:31;;;;;;;11.80;4.10;;;;;;;;;;5054938;28;20575;-81
2022/05/15 12:15:09;;;;;;;12.13;4.50;;;;;;;;;;5037703;28;20045;-80
2022/05/15 12:17:38;;;;;;;11.25;3.80;;;;;;;;;;5083821;28;20564;-82
2022/05/15 12:20:24;;;;;;;17.63;4.70;;;;;;;;;;5070621;28;20170;-81
2022/05/15 12:22:56;;;;;;;13.68;4.38;;;;;;;;;;5056735;28;20047;-80
2022/05/15 12:25:29;;;;;;;13.68;4.55;;;;;;;;;;5087530;28;20066;-80
2022/05/15 12:28:50;;;;;;;12.18;3.95;;;;;;;;;;5090775;28;20043;-81
2022/05/15 12:30:45;;;;;;;10.85;3.92;;;;;;;;;;5097022;28;20132;-81
2022/05/15 12:33:13;;;;;;;12.40;4.13;;;;;;;;;;5071017;28;20040;-81
2022/05/15 12:35:41;;;;;;;13.57;4.20;;;;;;;;;;5078353;28;20117;-81
2022/05/15 12:38:10;;;;;;;11.73;4.43;;;;;;;;;;5086471;28;20542;-80
2022/05/15 12:40:38;;;;;;;11.25;4.15;;;;;;;;;;5073513;28;20062;-81
2022/05/15 12:43:18;;;;;;;15.13;4.55;;;;;;;;;;5073240;28;20046;-79
2022/05/15 12:45:45;;;;;;;11.75;4.13;;;;;;;;;;5070732;28;20081;-81
2022/05/15 12:48:12;;;;;;;12.82;3.92;;;;;;;;;;5057133;28;20507;-80
2022/05/15 12:51:09;;;;;;;11.80;3.95;;;;;;;;;;5054128;28;20089;-81
2022/05/15 12:53:46;;;;;;;11.43;4.13;;;;;;;;;;5066522;28;20117;-80
2022/05/15 12:56:25;;;;;;;10.57;3.97;;;;;;;;;;5065133;28;20139;-82
2022/05/15 12:58:57;;;;;;;11.98;3.75;;;;;;;;;;5086076;28;20047;-80
2022/05/15 13:01:28;;;;;;;13.07;3.72;;;;;;;;;;5088440;28;20487;-81
2022/05/15 13:03:58;;;;;;;12.15;4.50;;;;;;;;;;5085165;28;20048;-81
2022/05/15 13:06:39;;;;;;;8.55;3.70;;;;;;;;;;5088607;28;20411;-79
2022/05/15 13:09:10;;;;;;;11.02;3.72;;;;;;;;;;5074690;28;20044;-80
2022/05/15 13:11:42;;;;;;;10.10;3.88;;;;;;;;;;5073516;28;20040;-79
2022/05/15 13:14:14;;;;;;;11.50;3.88;;;;;;;;;;5069824;28;20036;-80
2022/05/15 13:16:44;;;;;;;11.13;3.97;;;;;;;;;;5058709;28;20036;-80
2022/05/15 13:19:13;;;;;;;10.80;3.80;;;;;;;;;;5066377;28;20111;-79
2022/05/15 13:21:41;;;;;;;12.98;3.75;;;;;;;;;;5091085;28;20039;-79
2022/05/15 13:24:11;;;;;;;11.23;3.65;;;;;;;;;;5075913;28;20044;-79
2022/05/15 13:26:40;;;;;;;10.82;3.85;;;;;;;;;;5104774;28;20046;-79
2022/05/15 13:29:08;;;;;;;11.63;3.30;;;;;;;;;;5079228;28;20454;-79
2022/05/15 13:31:36;;;;;;;14.38;3.55;;;;;;;;;;5088335;28;20097;-79
2022/05/15 13:34:03;;;;;;;9.55;3.10;;;;;;;;;;5074923;28;20043;-81
2022/05/15 13:36:29;;;;;;;9.38;3.38;;;;;;;;;;5086815;28;20056;-78
2022/05/15 13:44:29;;;;;;;12.40;3.65;;;;;;;;;;5083631;28;20126;-80
2022/05/15 13:46:59;;;;;;;10.82;3.15;;;;;;;;;;5106594;28;20040;-79
2022/05/15 13:49:36;;;;;;;10.77;3.42;;;;;;;;;;5090409;28;20039;-79
2022/05/15 13:52:20;;;;;;;10.48;3.28;;;;;;;;;;5098208;28;20081;-80
2022/05/15 13:54:46;;;;;;;10.63;3.15;;;;;;;;;;5089183;28;20043;-80
2022/05/15 13:57:13;;;;;;;9.10;3.28;;;;;;;;;;5090551;28;20047;-80
2022/05/15 13:59:41;;;;;;;9.43;3.00;;;;;;;;;;5081358;28;20067;-79
2022/05/15 14:02:11;;;;;;;9.23;3.35;;;;;;;;;;5097634;28;20039;-80
2022/05/15 14:04:41;;;;;;;8.98;2.83;;;;;;;;;;5088885;28;20042;-80
2022/05/15 14:07:08;;;;;;;10.85;3.20;;;;;;;;;;5107031;28;20044;-79
2022/05/15 14:09:44;;;;;;;9.00;3.13;;;;;;;;;;5098457;28;20036;-79
2022/05/15 14:12:13;;;;;;;8.32;2.92;;;;;;;;;;5108873;28;20066;-78
2022/05/15 14:14:54;;;;;;;9.18;2.97;;;;;;;;;;5077335;28;20036;-79
2022/05/15 14:17:20;;;;;;;8.05;2.60;;;;;;;;;;5111104;28;20040;-80
2022/05/15 14:20:16;;;;;;;9.70;2.72;;;;;;;;;;5093277;28;20040;-80
2022/05/15 14:22:42;;;;;;;8.55;2.60;;;;;;;;;;5096954;28;20146;-81
2022/05/15 14:25:10;;;;;;;8.43;2.78;;;;;;;;;;5081391;28;20032;-81
2022/05/15 14:27:36;;;;;;;10.60;3.13;;;;;;;;;;5093396;28;20052;-80
2022/05/15 14:30:04;;;;;;;9.85;2.72;;;;;;;;;;5084267;28;20054;-80
2022/05/15 14:32:31;;;;;;;7.30;2.30;;;;;;;;;;5115237;28;20036;-80
2022/05/15 14:34:58;;;;;;;6.68;2.40;;;;;;;;;;5081914;28;20044;-79
2022/05/15 14:37:24;;;;;;;9.15;3.22;;;;;;;;;;5109821;28;20052;-80
2022/05/15 14:39:51;;;;;;;9.45;3.30;;;;;;;;;;5077485;28;20506;-80
2022/05/15 14:42:17;;;;;;;8.38;2.45;;;;;;;;;;5105684;28;20115;-80
2022/05/15 14:44:43;;;;;;;9.57;2.80;;;;;;;;;;5082090;28;20530;-79
2022/05/15 14:47:11;;;;;;;19.70;3.65;;;;;;;;;;5079152;28;20044;-78
2022/05/15 14:49:52;;;;;;;7.40;2.60;;;;;;;;;;5090818;28;20043;-79
2022/05/15 14:52:21;;;;;;;11.13;2.90;;;;;;;;;;5103242;28;20518;-79
2022/05/15 14:54:47;;;;;;;10.27;2.65;;;;;;;;;;5094397;28;20043;-79
2022/05/15 14:57:14;;;;;;;9.05;2.67;;;;;;;;;;5106539;28;20040;-79
2022/05/15 14:59:43;;;;;;;9.55;3.05;;;;;;;;;;5082045;28;20036;-78
2022/05/15 15:02:09;;;;;;;10.82;2.80;;;;;;;;;;5081434;28;20094;-79
2022/05/15 15:04:36;;;;;;;9.13;2.88;;;;;;;;;;5090754;28;20123;-79
2022/05/15 15:07:04;;;;;;;8.15;2.70;;;;;;;;;;5106409;28;20370;-78
2022/05/15 15:09:33;;;;;;;25.85;4.53;;;;;;;;;;5099498;28;20036;-78